Time;durP1;ratioP1;P1;durP2;ratioP2;P2;SDS_P1;SDS_P2;PMS_P1;PMS_P2;Temp;Humidity;BMP_temperature;BMP_pressure;BME280_temperature;BME280_humidity;BME280_pressure;Samples;Min_cycle;Max_cycle;Signal;HPM_P1;HPM_P2
2023/05/21 00:01:58;;;;;;;11.85;10.75;;;;;;;;;;5072388;28;20208;-83
2023/05/21 00:04:28;;;;;;;12.00;9.80;;;;;;;;;;5069185;28;20236;-81
2023/05/21 00:06:55;;;;;;;13.30;10.35;;;;;;;;;;5073109;28;20209;-79
2023/05/21 00:09:24;;;;;;;11.55;9.90;;;;;;;;;;5065297;28;20285;-82
2023/05/21 00:11:51;;;;;;;14.95;11.00;;;;;;;;;;5076026;28;20244;-80
2023/05/21 00:14:18;;;;;;;11.98;10.88;;;;;;;;;;5077642;28;20215;-82
2023/05/21 00:16:46;;;;;;;13.88;11.10;;;;;;;;;;5054188;28;20469;-80
2023/05/21 00:19:13;;;;;;;12.30;10.95;;;;;;;;;;5068404;28;20294;-81
2023/05/21 00:21:41;;;;;;;12.90;10.95;;;;;;;;;;5071428;28;20202;-83
2023/05/21 00:24:08;;;;;;;11.60;10.40;;;;;;;;;;5074011;28;20250;-80
2023/05/21 00:26:35;;;;;;;12.13;10.93;;;;;;;;;;5050184;28;20213;-82
2023/05/21 00:29:03;;;;;;;12.52;11.27;;;;;;;;;;5069655;28;20230;-82
2023/05/21 00:31:31;;;;;;;12.52;11.23;;;;;;;;;;5065801;28;20209;-83
2023/05/21 00:33:58;;;;;;;12.88;11.57;;;;;;;;;;5072411;28;20308;-80
2023/05/21 00:36:25;;;;;;;13.05;10.93;;;;;;;;;;5070763;28;20229;-82
2023/05/21 00:38:52;;;;;;;12.57;11.30;;;;;;;;;;5072670;28;20192;-82
2023/05/21 00:41:21;;;;;;;11.85;10.65;;;;;;;;;;5056390;28;20905;-82
2023/05/21 00:43:49;;;;;;;13.55;11.07;;;;;;;;;;5052983;28;20660;-81
2023/05/21 00:46:19;;;;;;;12.80;10.80;;;;;;;;;;5075940;28;20230;-83
2023/05/21 00:48:47;;;;;;;13.00;11.35;;;;;;;;;;5080608;28;20305;-83
2023/05/21 00:51:15;;;;;;;11.73;10.50;;;;;;;;;;5085882;28;20216;-81
2023/05/21 00:53:42;;;;;;;13.25;11.00;;;;;;;;;;5060181;28;20317;-83
2023/05/21 00:56:10;;;;;;;12.05;10.85;;;;;;;;;;5078546;28;20628;-81
2023/05/21 00:58:38;;;;;;;13.00;11.23;;;;;;;;;;5075627;28;20203;-80
2023/05/21 01:01:05;;;;;;;12.85;10.50;;;;;;;;;;5059187;28;20213;-78
2023/05/21 01:03:37;;;;;;;13.02;11.57;;;;;;;;;;5061233;28;20228;-81
2023/05/21 01:06:06;;;;;;;12.15;10.93;;;;;;;;;;5067411;28;20215;-78
2023/05/21 01:08:36;;;;;;;12.45;11.23;;;;;;;;;;5065161;28;20212;-77
2023/05/21 01:11:04;;;;;;;13.40;10.88;;;;;;;;;;5081040;28;20204;-78
2023/05/21 01:13:33;;;;;;;12.63;11.40;;;;;;;;;;5077111;28;20225;-81
2023/05/21 01:16:01;;;;;;;13.98;11.48;;;;;;;;;;5075778;28;20277;-81
2023/05/21 01:18:28;;;;;;;12.43;10.88;;;;;;;;;;5071625;28;20232;-79
2023/05/21 01:20:56;;;;;;;13.48;12.05;;;;;;;;;;5083247;28;20208;-84
2023/05/21 01:23:23;;;;;;;15.77;12.40;;;;;;;;;;5073476;28;20274;-83
2023/05/21 01:25:50;;;;;;;13.43;12.02;;;;;;;;;;5072077;28;20765;-79
2023/05/21 01:28:17;;;;;;;13.60;12.18;;;;;;;;;;5072027;28;20206;-83
2023/05/21 01:30:45;;;;;;;13.32;11.40;;;;;;;;;;5066260;28;20205;-81
2023/05/21 01:33:24;;;;;;;13.35;11.80;;;;;;;;;;5073317;28;20245;-82
2023/05/21 01:35:59;;;;;;;13.43;12.05;;;;;;;;;;5069543;28;20693;-79
2023/05/21 01:38:30;;;;;;;13.98;12.45;;;;;;;;;;5081829;28;20196;-83
2023/05/21 01:41:04;;;;;;;15.23;12.50;;;;;;;;;;5071045;28;20197;-83
2023/05/21 01:43:33;;;;;;;13.20;11.20;;;;;;;;;;5069665;28;20316;-77
2023/05/21 01:46:01;;;;;;;15.05;12.85;;;;;;;;;;5052942;28;20698;-78
2023/05/21 01:48:29;;;;;;;14.13;12.63;;;;;;;;;;5066695;28;20205;-78
2023/05/21 01:50:59;;;;;;;13.63;12.23;;;;;;;;;;5082209;28;20214;-77
2023/05/21 01:53:27;;;;;;;13.80;12.32;;;;;;;;;;5069066;28;20255;-80
2023/05/21 01:55:54;;;;;;;13.45;12.15;;;;;;;;;;5058178;28;20801;-82
2023/05/21 01:58:23;;;;;;;13.30;11.73;;;;;;;;;;5071604;28;20786;-83
2023/05/21 02:00:50;;;;;;;15.48;12.20;;;;;;;;;;5055018;28;20224;-81
2023/05/21 02:03:18;;;;;;;14.20;12.77;;;;;;;;;;5070676;28;20228;-81
2023/05/21 02:05:46;;;;;;;14.98;13.32;;;;;;;;;;5067603;28;20207;-79
2023/05/21 02:08:14;;;;;;;15.40;13.00;;;;;;;;;;5070033;28;22059;-82
2023/05/21 02:10:41;;;;;;;15.63;13.52;;;;;;;;;;5062696;28;20626;-82
2023/05/21 02:13:08;;;;;;;15.40;13.27;;;;;;;;;;5064469;28;20274;-80
2023/05/21 02:15:36;;;;;;;16.70;14.27;;;;;;;;;;5061710;28;20208;-78
2023/05/21 02:18:03;;;;;;;14.83;13.23;;;;;;;;;;5077482;28;21180;-81
2023/05/21 02:20:31;;;;;;;13.95;12.45;;;;;;;;;;5066580;28;20292;-84
2023/05/21 02:22:58;;;;;;;16.83;13.57;;;;;;;;;;5081842;28;20266;-80
2023/05/21 02:25:25;;;;;;;14.02;12.52;;;;;;;;;;5069130;28;20795;-81
2023/05/21 02:27:55;;;;;;;13.30;12.00;;;;;;;;;;5067412;28;20266;-78
2023/05/21 02:30:22;;;;;;;13.60;12.10;;;;;;;;;;5068842;28;20201;-82
2023/05/21 02:32:50;;;;;;;13.13;11.75;;;;;;;;;;5069237;28;20224;-79
2023/05/21 02:35:17;;;;;;;14.27;12.73;;;;;;;;;;5073837;28;20201;-81
2023/05/21 02:37:44;;;;;;;14.60;13.10;;;;;;;;;;5063765;28;20225;-80
2023/05/21 02:40:12;;;;;;;14.07;12.57;;;;;;;;;;5076545;28;20201;-84
2023/05/21 02:42:40;;;;;;;14.03;12.60;;;;;;;;;;5080691;28;20323;-80
2023/05/21 02:45:08;;;;;;;12.50;11.30;;;;;;;;;;5081337;28;20207;-84
2023/05/21 02:47:37;;;;;;;11.93;10.77;;;;;;;;;;5075418;28;20301;-84
2023/05/21 02:50:06;;;;;;;12.50;11.20;;;;;;;;;;5058155;28;20208;-82
2023/05/21 02:52:33;;;;;;;13.23;11.83;;;;;;;;;;5058625;28;20232;-79
2023/05/21 02:55:00;;;;;;;13.37;11.97;;;;;;;;;;5073395;28;20209;-82
2023/05/21 02:57:27;;;;;;;14.50;12.97;;;;;;;;;;5074184;28;20248;-81
2023/05/21 02:59:55;;;;;;;15.13;13.53;;;;;;;;;;5065394;28;20798;-81
2023/05/21 03:02:22;;;;;;;17.93;13.93;;;;;;;;;;5065417;28;20609;-82
2023/05/21 03:04:50;;;;;;;16.60;14.27;;;;;;;;;;5066807;28;20219;-81
2023/05/21 03:07:18;;;;;;;14.77;13.27;;;;;;;;;;5049046;28;20687;-81
2023/05/21 03:09:46;;;;;;;14.77;13.23;;;;;;;;;;5062316;28;20328;-82
2023/05/21 03:12:13;;;;;;;16.70;13.80;;;;;;;;;;5055382;28;20742;-82
2023/05/21 03:14:45;;;;;;;14.40;12.90;;;;;;;;;;5058415;28;20266;-78
2023/05/21 03:17:13;;;;;;;15.90;12.60;;;;;;;;;;5055632;28;20222;-78
2023/05/21 03:19:41;;;;;;;14.13;12.63;;;;;;;;;;5083900;28;20201;-82
2023/05/21 03:22:09;;;;;;;13.50;12.20;;;;;;;;;;5074632;28;20229;-82
2023/05/21 03:24:37;;;;;;;14.43;13.03;;;;;;;;;;5076985;28;20258;-80
2023/05/21 03:27:05;;;;;;;15.40;13.37;;;;;;;;;;5062404;28;20609;-78
2023/05/21 03:29:33;;;;;;;14.17;12.77;;;;;;;;;;5073670;28;20423;-82
2023/05/21 03:32:01;;;;;;;14.73;13.13;;;;;;;;;;5055353;28;20197;-78
2023/05/21 03:34:28;;;;;;;15.90;13.97;;;;;;;;;;5067473;28;20325;-81
2023/05/21 03:36:55;;;;;;;14.97;12.90;;;;;;;;;;5067535;28;20216;-80
2023/05/21 03:39:23;;;;;;;14.80;13.20;;;;;;;;;;5059906;28;20193;-82
2023/05/21 03:41:50;;;;;;;13.43;12.13;;;;;;;;;;5073761;28;20394;-82
2023/05/21 03:44:17;;;;;;;15.43;13.83;;;;;;;;;;5076072;28;20702;-83
2023/05/21 03:46:45;;;;;;;15.47;13.30;;;;;;;;;;5081952;28;20369;-83
2023/05/21 03:49:13;;;;;;;15.17;13.60;;;;;;;;;;5073539;28;20262;-83
2023/05/21 03:51:40;;;;;;;16.20;14.17;;;;;;;;;;5069176;28;20204;-80
2023/05/21 03:54:08;;;;;;;17.33;14.67;;;;;;;;;;5068271;28;20758;-84
2023/05/21 03:56:35;;;;;;;17.03;14.97;;;;;;;;;;5080417;28;20228;-79
2023/05/21 03:59:02;;;;;;;17.03;15.23;;;;;;;;;;5069017;28;20669;-84
2023/05/21 04:01:31;;;;;;;16.97;14.23;;;;;;;;;;5069778;28;20223;-82
2023/05/21 04:03:59;;;;;;;18.93;16.07;;;;;;;;;;5079987;28;20240;-77
2023/05/21 04:06:26;;;;;;;18.20;16.30;;;;;;;;;;5069051;28;20204;-82
2023/05/21 04:08:54;;;;;;;16.90;15.10;;;;;;;;;;5073274;28;20201;-80
2023/05/21 04:11:21;;;;;;;17.10;15.30;;;;;;;;;;5067472;28;20243;-79
2023/05/21 04:13:49;;;;;;;24.20;16.80;;;;;;;;;;5071380;28;20229;-82
2023/05/21 04:16:17;;;;;;;20.03;15.70;;;;;;;;;;5061623;28;20217;-81
2023/05/21 04:18:46;;;;;;;16.10;14.50;;;;;;;;;;5083951;28;20731;-82
2023/05/21 04:21:13;;;;;;;16.20;14.50;;;;;;;;;;5038338;28;20679;-80
2023/05/21 04:23:41;;;;;;;15.07;13.27;;;;;;;;;;5079010;28;20220;-83
2023/05/21 04:26:08;;;;;;;15.90;14.20;;;;;;;;;;5066037;28;20204;-78
2023/05/21 04:28:35;;;;;;;14.47;12.97;;;;;;;;;;5067554;28;20219;-82
2023/05/21 04:31:04;;;;;;;17.80;15.97;;;;;;;;;;5065147;28;20209;-80
2023/05/21 04:33:34;;;;;;;16.50;13.97;;;;;;;;;;5069949;28;20231;-79
2023/05/21 04:36:02;;;;;;;15.53;13.57;;;;;;;;;;5067067;28;20197;-84
2023/05/21 04:38:30;;;;;;;17.00;14.43;;;;;;;;;;5071998;28;20296;-82
2023/05/21 04:40:57;;;;;;;15.93;14.33;;;;;;;;;;5066386;28;20221;-81
2023/05/21 04:43:25;;;;;;;15.07;13.10;;;;;;;;;;5076148;28;20217;-78
2023/05/21 04:45:56;;;;;;;14.27;12.87;;;;;;;;;;5071035;28;20265;-83
2023/05/21 04:48:26;;;;;;;15.40;13.80;;;;;;;;;;5069408;28;20675;-81
2023/05/21 04:50:55;;;;;;;14.57;13.07;;;;;;;;;;5075096;28;20196;-80
2023/05/21 04:53:24;;;;;;;13.63;12.23;;;;;;;;;;5073626;28;20224;-83
2023/05/21 04:55:52;;;;;;;13.60;12.20;;;;;;;;;;5070987;28;20325;-82
2023/05/21 04:58:19;;;;;;;17.67;13.30;;;;;;;;;;5076484;28;20255;-80
2023/05/21 05:00:49;;;;;;;14.47;13.07;;;;;;;;;;5074908;28;21631;-83
2023/05/21 05:03:17;;;;;;;14.93;13.43;;;;;;;;;;5076168;28;20232;-82
2023/05/21 05:05:46;;;;;;;15.20;13.60;;;;;;;;;;5075165;28;20201;-83
2023/05/21 05:08:13;;;;;;;16.27;14.57;;;;;;;;;;5071105;28;20210;-82
2023/05/21 05:10:42;;;;;;;15.43;13.73;;;;;;;;;;5074242;28;20204;-81
2023/05/21 05:13:09;;;;;;;16.27;14.57;;;;;;;;;;5073467;28;20282;-79
2023/05/21 05:15:36;;;;;;;16.93;14.40;;;;;;;;;;5071313;28;20217;-82
2023/05/21 05:18:05;;;;;;;16.10;13.97;;;;;;;;;;5067186;28;20228;-84
2023/05/21 05:20:32;;;;;;;19.87;14.73;;;;;;;;;;5072578;28;20811;-82
2023/05/21 05:23:00;;;;;;;17.23;14.50;;;;;;;;;;5068487;28;20730;-81
2023/05/21 05:25:27;;;;;;;18.00;14.50;;;;;;;;;;5074714;28;20196;-80
2023/05/21 05:27:54;;;;;;;16.50;14.67;;;;;;;;;;5071113;28;20310;-82
2023/05/21 05:30:21;;;;;;;15.87;13.73;;;;;;;;;;5072257;28;20205;-80
2023/05/21 05:32:49;;;;;;;16.73;14.63;;;;;;;;;;5075546;28;20298;-83
2023/05/21 05:35:16;;;;;;;15.98;14.38;;;;;;;;;;5075177;28;20997;-79
2023/05/21 05:37:44;;;;;;;15.95;14.30;;;;;;;;;;5082862;28;20225;-83
2023/05/21 05:40:11;;;;;;;17.23;15.20;;;;;;;;;;5082032;28;20697;-85
2023/05/21 05:42:39;;;;;;;16.38;14.70;;;;;;;;;;5077191;28;20270;-79
2023/05/21 05:45:06;;;;;;;16.65;13.80;;;;;;;;;;5055971;28;20197;-84
2023/05/21 05:47:34;;;;;;;18.02;15.85;;;;;;;;;;5080522;28;20204;-78
2023/05/21 05:50:01;;;;;;;15.20;13.60;;;;;;;;;;5086457;28;20197;-83
2023/05/21 05:52:29;;;;;;;15.07;13.57;;;;;;;;;;5076296;28;20599;-81
2023/05/21 05:54:56;;;;;;;16.90;14.75;;;;;;;;;;5078522;28;20200;-80
2023/05/21 05:57:23;;;;;;;15.15;13.70;;;;;;;;;;5075656;28;20578;-78
2023/05/21 05:59:51;;;;;;;16.27;14.60;;;;;;;;;;5071639;28;20464;-82
2023/05/21 06:02:18;;;;;;;15.40;13.25;;;;;;;;;;5074851;28;20558;-84
2023/05/21 06:04:45;;;;;;;15.85;14.20;;;;;;;;;;5077048;28;20205;-79
2023/05/21 06:07:13;;;;;;;15.70;14.10;;;;;;;;;;5068047;28;20197;-84
2023/05/21 06:09:40;;;;;;;14.68;13.10;;;;;;;;;;5077861;28;20720;-82
2023/05/21 06:12:07;;;;;;;14.32;12.88;;;;;;;;;;5054824;28;20583;-80
2023/05/21 06:14:40;;;;;;;16.10;14.35;;;;;;;;;;5065307;28;20706;-80
2023/05/21 06:17:11;;;;;;;15.40;13.20;;;;;;;;;;5075113;28;20233;-84
2023/05/21 06:19:39;;;;;;;14.52;13.02;;;;;;;;;;5054868;28;20201;-82
2023/05/21 06:22:06;;;;;;;16.75;13.45;;;;;;;;;;5058600;28;20211;-79
2023/05/21 06:24:34;;;;;;;15.50;13.90;;;;;;;;;;5068447;28;20211;-80
2023/05/21 06:27:02;;;;;;;17.63;15.73;;;;;;;;;;5078672;28;20205;-81
2023/05/21 06:29:30;;;;;;;19.55;16.70;;;;;;;;;;5072408;28;20196;-79
2023/05/21 06:31:57;;;;;;;16.88;15.18;;;;;;;;;;5067812;28;20260;-82
2023/05/21 06:34:24;;;;;;;14.98;13.48;;;;;;;;;;5074666;28;20206;-84
2023/05/21 06:36:52;;;;;;;16.42;14.18;;;;;;;;;;5048848;28;20197;-83
2023/05/21 06:39:19;;;;;;;17.55;13.52;;;;;;;;;;5068407;28;20269;-79
2023/05/21 06:41:46;;;;;;;15.38;13.85;;;;;;;;;;5076295;28;20197;-79
2023/05/21 06:44:14;;;;;;;14.68;13.18;;;;;;;;;;5074338;28;20333;-82
2023/05/21 06:46:42;;;;;;;14.88;13.32;;;;;;;;;;5071713;28;20210;-82
2023/05/21 06:49:10;;;;;;;15.40;13.82;;;;;;;;;;5077890;28;20688;-82
2023/05/21 06:51:40;;;;;;;14.77;13.27;;;;;;;;;;5076062;28;20207;-82
2023/05/21 06:54:07;;;;;;;15.88;14.18;;;;;;;;;;5078963;28;20312;-80
2023/05/21 06:56:35;;;;;;;16.33;14.27;;;;;;;;;;5076805;28;20226;-80
2023/05/21 06:59:02;;;;;;;15.85;14.27;;;;;;;;;;5073444;28;20883;-80
2023/05/21 07:01:29;;;;;;;16.17;14.48;;;;;;;;;;5076494;28;20223;-77
2023/05/21 07:03:57;;;;;;;16.13;14.43;;;;;;;;;;5078531;28;20229;-82
2023/05/21 07:06:24;;;;;;;15.50;13.90;;;;;;;;;;5077005;28;20239;-81
2023/05/21 07:08:52;;;;;;;15.70;14.13;;;;;;;;;;5068890;28;20208;-78
2023/05/21 07:11:20;;;;;;;15.40;13.73;;;;;;;;;;5068169;28;20763;-79
2023/05/21 07:13:47;;;;;;;16.20;14.18;;;;;;;;;;5071197;28;20232;-82
2023/05/21 07:16:16;;;;;;;14.63;13.13;;;;;;;;;;5076703;28;20213;-82
2023/05/21 07:18:45;;;;;;;16.80;14.45;;;;;;;;;;5077163;28;20281;-77
2023/05/21 07:21:12;;;;;;;15.30;13.23;;;;;;;;;;5072959;28;20194;-84
2023/05/21 07:23:40;;;;;;;15.68;13.18;;;;;;;;;;5075082;28;20217;-78
2023/05/21 07:26:08;;;;;;;14.85;13.15;;;;;;;;;;5075277;28;20197;-80
2023/05/21 07:28:35;;;;;;;14.70;12.90;;;;;;;;;;5073583;28;20212;-78
2023/05/21 07:31:03;;;;;;;14.13;12.73;;;;;;;;;;5066956;28;20216;-81
2023/05/21 07:33:30;;;;;;;15.07;13.60;;;;;;;;;;5067771;28;20326;-81
2023/05/21 07:35:57;;;;;;;13.77;12.48;;;;;;;;;;5076666;28;20213;-80
2023/05/21 07:38:25;;;;;;;15.25;13.70;;;;;;;;;;5047451;28;20232;-83
2023/05/21 07:40:52;;;;;;;14.48;12.98;;;;;;;;;;5054717;28;20205;-82
2023/05/21 07:43:19;;;;;;;14.30;12.82;;;;;;;;;;5061881;28;20770;-83
2023/05/21 07:45:47;;;;;;;14.65;13.15;;;;;;;;;;5056900;28;20235;-81
2023/05/21 07:48:14;;;;;;;15.23;13.73;;;;;;;;;;5060008;28;20220;-79
2023/05/21 07:50:42;;;;;;;15.05;13.45;;;;;;;;;;5063485;28;20209;-79
2023/05/21 07:53:09;;;;;;;14.95;13.48;;;;;;;;;;5062705;28;20247;-80
2023/05/21 07:55:36;;;;;;;15.20;13.70;;;;;;;;;;5071792;28;20205;-81
2023/05/21 07:58:04;;;;;;;14.80;13.40;;;;;;;;;;5048307;28;20672;-79
2023/05/21 08:00:42;;;;;;;14.57;13.07;;;;;;;;;;5073367;28;20212;-82
2023/05/21 08:03:10;;;;;;;15.98;13.55;;;;;;;;;;5080851;28;20235;-82
2023/05/21 08:05:38;;;;;;;14.57;12.68;;;;;;;;;;5073604;28;20201;-83
2023/05/21 08:08:05;;;;;;;15.23;13.73;;;;;;;;;;5078698;28;20200;-80
2023/05/21 08:10:32;;;;;;;15.93;14.20;;;;;;;;;;5082677;28;20283;-82
2023/05/21 08:13:00;;;;;;;14.80;13.25;;;;;;;;;;5072526;28;20318;-81
2023/05/21 08:15:27;;;;;;;15.02;13.38;;;;;;;;;;5073964;28;20292;-81
2023/05/21 08:17:54;;;;;;;15.55;13.93;;;;;;;;;;5052286;28;20216;-79
2023/05/21 08:20:22;;;;;;;14.98;13.48;;;;;;;;;;5078524;28;20720;-83
2023/05/21 08:22:49;;;;;;;15.55;13.20;;;;;;;;;;5079899;28;20229;-82
2023/05/21 08:25:16;;;;;;;15.18;13.57;;;;;;;;;;5075759;28;20639;-78
2023/05/21 08:27:43;;;;;;;15.48;13.68;;;;;;;;;;5069294;28;20213;-80
2023/05/21 08:30:11;;;;;;;15.18;13.25;;;;;;;;;;5073424;28;20208;-82
2023/05/21 08:32:39;;;;;;;14.98;13.45;;;;;;;;;;5073100;28;20241;-82
2023/05/21 08:35:07;;;;;;;15.27;13.52;;;;;;;;;;5077325;28;20219;-81
2023/05/21 08:37:34;;;;;;;17.95;13.48;;;;;;;;;;5079540;28;20208;-83
2023/05/21 08:40:03;;;;;;;16.48;14.82;;;;;;;;;;5075450;28;20208;-81
2023/05/21 08:42:39;;;;;;;13.88;12.55;;;;;;;;;;5063366;28;20597;-80
2023/05/21 08:45:10;;;;;;;13.95;12.55;;;;;;;;;;5075572;28;20893;-83
2023/05/21 08:47:40;;;;;;;14.48;13.07;;;;;;;;;;5079396;28;20205;-84
2023/05/21 08:50:09;;;;;;;15.35;13.80;;;;;;;;;;5076214;28;20193;-82
2023/05/21 08:52:36;;;;;;;15.05;13.45;;;;;;;;;;5078140;28;20604;-83
2023/05/21 08:55:04;;;;;;;16.63;14.32;;;;;;;;;;5078921;28;20196;-83
2023/05/21 08:57:31;;;;;;;13.70;12.40;;;;;;;;;;5085153;28;20201;-85
2023/05/21 09:00:00;;;;;;;16.55;13.20;;;;;;;;;;5077927;28;20707;-79
2023/05/21 09:02:29;;;;;;;15.02;13.48;;;;;;;;;;5073939;28;20351;-81
2023/05/21 09:04:58;;;;;;;14.25;12.85;;;;;;;;;;5077959;28;20829;-83
2023/05/21 09:07:29;;;;;;;13.65;12.10;;;;;;;;;;5070725;28;20628;-82
2023/05/21 09:10:04;;;;;;;13.65;12.15;;;;;;;;;;5080242;28;20304;-81
2023/05/21 09:12:33;;;;;;;13.18;11.55;;;;;;;;;;5080817;28;20231;-84
2023/05/21 09:15:01;;;;;;;13.77;12.38;;;;;;;;;;5078059;28;20193;-84
2023/05/21 09:17:28;;;;;;;13.60;12.15;;;;;;;;;;5083218;28;20208;-84
2023/05/21 09:20:14;;;;;;;15.35;13.73;;;;;;;;;;5086636;28;20254;-83
2023/05/21 09:22:46;;;;;;;13.55;12.10;;;;;;;;;;5076698;28;20333;-83
2023/05/21 09:25:15;;;;;;;13.13;11.73;;;;;;;;;;5064069;28;20204;-82
2023/05/21 09:27:43;;;;;;;14.23;12.82;;;;;;;;;;5082450;28;20782;-79
2023/05/21 09:30:14;;;;;;;14.98;13.48;;;;;;;;;;5077898;28;20193;-82
2023/05/21 09:32:43;;;;;;;15.70;12.90;;;;;;;;;;5084967;28;20290;-82
2023/05/21 09:35:12;;;;;;;14.77;11.90;;;;;;;;;;5083157;28;20231;-81
2023/05/21 09:37:43;;;;;;;13.00;11.52;;;;;;;;;;5086698;28;20226;-81
2023/05/21 09:40:12;;;;;;;14.70;12.32;;;;;;;;;;5079711;28;20363;-82
2023/05/21 09:42:40;;;;;;;14.90;13.45;;;;;;;;;;5081249;28;20228;-79
2023/05/21 09:45:08;;;;;;;15.57;13.45;;;;;;;;;;5084717;28;20287;-78
2023/05/21 09:47:42;;;;;;;14.73;12.75;;;;;;;;;;5085996;28;20201;-81
2023/05/21 09:50:10;;;;;;;12.65;10.82;;;;;;;;;;5085905;28;20204;-80
2023/05/21 09:52:38;;;;;;;11.70;10.52;;;;;;;;;;5083259;28;20647;-81
2023/05/21 09:55:11;;;;;;;11.68;10.57;;;;;;;;;;5078814;28;20261;-82
2023/05/21 09:57:42;;;;;;;10.98;9.88;;;;;;;;;;5084541;28;20205;-80
2023/05/21 10:00:16;;;;;;;12.18;10.50;;;;;;;;;;5061234;28;20198;-81
2023/05/21 10:02:47;;;;;;;13.25;11.95;;;;;;;;;;5069966;28;20227;-79
2023/05/21 10:05:15;;;;;;;11.85;10.40;;;;;;;;;;5053837;28;20355;-81
2023/05/21 10:07:49;;;;;;;10.75;9.75;;;;;;;;;;5067796;28;20204;-77
2023/05/21 10:10:18;;;;;;;9.75;8.80;;;;;;;;;;5080107;28;20202;-79
2023/05/21 10:12:46;;;;;;;12.02;10.65;;;;;;;;;;5077582;28;20224;-83
2023/05/21 10:15:15;;;;;;;11.35;9.85;;;;;;;;;;5076621;28;20204;-80
2023/05/21 10:17:43;;;;;;;12.02;9.50;;;;;;;;;;5071611;28;20212;-81
2023/05/21 10:20:11;;;;;;;11.00;9.77;;;;;;;;;;5085160;28;20197;-81
2023/05/21 10:22:42;;;;;;;8.10;7.30;;;;;;;;;;5080353;28;20217;-82
2023/05/21 10:25:10;;;;;;;8.18;6.68;;;;;;;;;;5071712;28;20197;-79
2023/05/21 10:27:37;;;;;;;6.93;5.90;;;;;;;;;;5064902;28;20213;-83
2023/05/21 10:30:06;;;;;;;6.45;5.82;;;;;;;;;;5060096;28;20740;-83
2023/05/21 10:32:33;;;;;;;7.82;7.13;;;;;;;;;;5078763;28;20233;-81
2023/05/21 10:35:01;;;;;;;7.50;6.82;;;;;;;;;;5081082;28;20208;-81
2023/05/21 10:37:29;;;;;;;8.32;6.53;;;;;;;;;;5073609;28;20217;-82
2023/05/21 10:39:56;;;;;;;8.02;7.32;;;;;;;;;;5051696;28;20233;-80
2023/05/21 10:42:30;;;;;;;8.30;7.38;;;;;;;;;;5079090;28;20212;-81
2023/05/21 10:45:07;;;;;;;11.00;9.40;;;;;;;;;;5066352;28;20243;-78
2023/05/21 10:47:54;;;;;;;9.23;8.32;;;;;;;;;;5083141;28;20288;-81
2023/05/21 10:50:21;;;;;;;10.48;9.48;;;;;;;;;;5081314;28;20236;-78
2023/05/21 10:52:48;;;;;;;11.88;10.77;;;;;;;;;;5061787;28;20241;-79
2023/05/21 10:55:16;;;;;;;10.90;9.88;;;;;;;;;;5049227;28;20314;-78
2023/05/21 10:57:53;;;;;;;12.48;9.68;;;;;;;;;;5067798;28;20238;-83
2023/05/21 11:00:20;;;;;;;8.10;7.40;;;;;;;;;;5074377;28;20527;-80
2023/05/21 11:02:48;;;;;;;16.13;14.50;;;;;;;;;;5071130;28;20240;-80
2023/05/21 11:05:15;;;;;;;10.73;9.73;;;;;;;;;;5064988;28;20374;-83
2023/05/21 11:07:53;;;;;;;9.25;8.30;;;;;;;;;;5082410;28;20251;-81
2023/05/21 11:10:37;;;;;;;10.40;7.50;;;;;;;;;;5080311;28;20201;-78
2023/05/21 11:13:10;;;;;;;8.25;7.00;;;;;;;;;;5071658;28;20227;-82
2023/05/21 11:15:56;;;;;;;7.18;6.53;;;;;;;;;;5062988;28;20213;-82
2023/05/21 11:18:23;;;;;;;8.63;6.93;;;;;;;;;;5065074;28;20294;-82
2023/05/21 11:20:51;;;;;;;8.98;8.07;;;;;;;;;;5053232;28;20193;-78
2023/05/21 11:23:20;;;;;;;9.05;6.30;;;;;;;;;;5072496;28;20220;-81
2023/05/21 11:26:06;;;;;;;7.18;6.57;;;;;;;;;;5071926;28;20212;-83
2023/05/21 11:28:33;;;;;;;7.50;6.72;;;;;;;;;;5079023;28;20292;-80
2023/05/21 11:31:19;;;;;;;6.90;6.30;;;;;;;;;;5081451;28;20201;-77
2023/05/21 11:33:47;;;;;;;7.00;5.70;;;;;;;;;;5079720;28;20221;-81
2023/05/21 11:36:14;;;;;;;6.57;5.88;;;;;;;;;;5072942;28;20289;-82
2023/05/21 11:38:41;;;;;;;6.05;5.45;;;;;;;;;;5071687;28;20647;-81
2023/05/21 11:41:08;;;;;;;6.55;5.95;;;;;;;;;;5052819;28;23213;-81
2023/05/21 11:43:40;;;;;;;6.07;5.43;;;;;;;;;;5073765;28;20260;-82
2023/05/21 11:46:09;;;;;;;5.88;5.38;;;;;;;;;;5060924;28;20216;-81
2023/05/21 11:48:37;;;;;;;6.72;6.10;;;;;;;;;;5037047;28;20340;-80
2023/05/21 11:51:05;;;;;;;6.82;6.22;;;;;;;;;;5061226;28;20928;-79
2023/05/21 11:53:32;;;;;;;7.15;6.55;;;;;;;;;;5061505;28;20360;-78
2023/05/21 11:56:01;;;;;;;7.15;6.45;;;;;;;;;;5063919;28;20204;-81
2023/05/21 11:58:30;;;;;;;7.50;6.80;;;;;;;;;;5047027;28;20959;-82
2023/05/21 12:00:57;;;;;;;;;;;;;;;;;;5070315;28;20054;-83
2023/05/21 12:03:25;;;;;;;7.45;6.65;;;;;;;;;;5063047;28;19927;-83
2023/05/21 12:05:53;;;;;;;7.32;6.63;;;;;;;;;;5063773;28;20801;-82
2023/05/21 12:08:24;;;;;;;7.18;6.47;;;;;;;;;;5082053;28;20211;-78
2023/05/21 12:10:58;;;;;;;7.40;6.80;;;;;;;;;;5073092;28;20205;-78
2023/05/21 12:13:26;;;;;;;7.95;6.78;;;;;;;;;;5069585;28;20228;-78
2023/05/21 12:15:54;;;;;;;7.55;6.85;;;;;;;;;;5069593;28;20201;-83
2023/05/21 12:18:21;;;;;;;8.10;6.75;;;;;;;;;;5037576;28;20205;-76
2023/05/21 12:20:50;;;;;;;7.47;6.63;;;;;;;;;;5067240;28;20201;-81
2023/05/21 12:23:19;;;;;;;8.40;7.60;;;;;;;;;;5040774;28;20228;-82
2023/05/21 12:25:46;;;;;;;7.95;7.18;;;;;;;;;;5050815;28;20618;-79
2023/05/21 12:28:13;;;;;;;8.00;7.25;;;;;;;;;;5061567;28;20220;-79
2023/05/21 12:30:41;;;;;;;8.05;7.35;;;;;;;;;;5063897;28;20208;-76
2023/05/21 12:33:10;;;;;;;8.65;7.75;;;;;;;;;;5065175;28;20274;-77
2023/05/21 12:35:38;;;;;;;9.15;7.60;;;;;;;;;;5062620;28;20212;-79
2023/05/21 12:38:08;;;;;;;9.00;8.07;;;;;;;;;;5072367;28;20220;-83
2023/05/21 12:40:40;;;;;;;8.35;7.43;;;;;;;;;;5054863;28;20255;-82
2023/05/21 12:43:07;;;;;;;8.80;7.90;;;;;;;;;;5075227;28;20938;-80
2023/05/21 12:45:35;;;;;;;9.70;8.70;;;;;;;;;;5049495;28;20762;-80
2023/05/21 12:48:03;;;;;;;8.50;7.80;;;;;;;;;;5065062;28;20298;-82
2023/05/21 12:50:32;;;;;;;8.85;7.95;;;;;;;;;;5066741;28;20254;-80
2023/05/21 12:53:00;;;;;;;8.82;8.13;;;;;;;;;;5063740;28;20434;-78
2023/05/21 12:55:27;;;;;;;10.35;8.23;;;;;;;;;;5060765;28;20694;-82
2023/05/21 12:58:02;;;;;;;9.10;8.20;;;;;;;;;;5064907;28;20213;-80
2023/05/21 13:00:29;;;;;;;8.23;7.43;;;;;;;;;;5064037;28;20321;-78
2023/05/21 13:02:58;;;;;;;8.65;7.85;;;;;;;;;;5061413;28;21204;-80
2023/05/21 13:05:26;;;;;;;8.63;7.72;;;;;;;;;;5069215;28;20196;-81
2023/05/21 13:07:53;;;;;;;8.25;7.00;;;;;;;;;;5081023;28;20690;-83
2023/05/21 13:10:21;;;;;;;7.68;6.88;;;;;;;;;;5061552;28;20214;-81
2023/05/21 13:12:48;;;;;;;6.97;6.28;;;;;;;;;;5065923;28;20249;-77
2023/05/21 13:15:15;;;;;;;6.47;5.97;;;;;;;;;;5081759;28;20211;-83
2023/05/21 13:17:42;;;;;;;7.38;6.30;;;;;;;;;;5085287;28;20205;-78
2023/05/21 13:20:13;;;;;;;5.65;5.15;;;;;;;;;;5074672;28;20217;-84
2023/05/21 13:22:43;;;;;;;5.18;4.78;;;;;;;;;;5069438;28;20221;-78
2023/05/21 13:25:11;;;;;;;4.70;4.30;;;;;;;;;;5087313;28;20209;-81
2023/05/21 13:27:38;;;;;;;3.78;3.47;;;;;;;;;;5085028;28;21232;-83
2023/05/21 13:30:06;;;;;;;3.60;3.30;;;;;;;;;;5080953;28;20213;-81
2023/05/21 13:32:34;;;;;;;3.72;3.42;;;;;;;;;;5077864;28;20279;-77
2023/05/21 13:35:01;;;;;;;4.05;3.65;;;;;;;;;;5087005;28;20213;-80
2023/05/21 13:37:29;;;;;;;3.63;3.30;;;;;;;;;;5085452;28;20212;-83
2023/05/21 13:39:56;;;;;;;3.88;3.58;;;;;;;;;;5088591;28;20217;-83
2023/05/21 13:42:24;;;;;;;5.05;4.65;;;;;;;;;;5084130;28;20236;-81
2023/05/21 13:44:51;;;;;;;4.93;4.53;;;;;;;;;;5081506;28;20197;-77
2023/05/21 13:47:19;;;;;;;5.57;3.75;;;;;;;;;;5071952;28;21988;-79
2023/05/21 13:49:46;;;;;;;4.75;4.25;;;;;;;;;;5065220;28;20205;-80
2023/05/21 13:52:13;;;;;;;4.63;4.22;;;;;;;;;;5059874;28;20228;-82
2023/05/21 13:54:42;;;;;;;5.20;4.70;;;;;;;;;;5065673;28;20208;-78
2023/05/21 13:57:09;;;;;;;5.43;4.90;;;;;;;;;;5083080;28;20221;-80
2023/05/21 13:59:39;;;;;;;4.93;4.43;;;;;;;;;;5081042;28;20229;-80
2023/05/21 14:02:07;;;;;;;5.55;5.00;;;;;;;;;;5084011;28;20201;-83
2023/05/21 14:04:37;;;;;;;4.90;4.40;;;;;;;;;;5088816;28;20216;-81
2023/05/21 14:07:06;;;;;;;5.40;4.85;;;;;;;;;;5068723;28;20227;-82
2023/05/21 14:09:33;;;;;;;5.55;5.05;;;;;;;;;;5067279;28;20209;-81
2023/05/21 14:12:01;;;;;;;4.95;4.45;;;;;;;;;;5069217;28;20205;-76
2023/05/21 14:14:32;;;;;;;6.35;4.82;;;;;;;;;;5071333;28;20272;-80
2023/05/21 14:16:59;;;;;;;4.72;4.30;;;;;;;;;;5072438;28;20216;-83
2023/05/21 14:19:26;;;;;;;4.60;4.20;;;;;;;;;;5067864;28;20691;-80
2023/05/21 14:21:58;;;;;;;5.82;4.18;;;;;;;;;;5047122;28;20259;-82
2023/05/21 14:24:25;;;;;;;4.93;4.43;;;;;;;;;;5069993;28;20936;-81
2023/05/21 14:26:53;;;;;;;4.90;4.38;;;;;;;;;;5070070;28;20217;-80
2023/05/21 14:29:20;;;;;;;4.65;3.80;;;;;;;;;;5071681;28;20496;-81
2023/05/21 14:31:47;;;;;;;3.90;3.58;;;;;;;;;;5076774;28;20216;-82